createdAt,value
2017-11-09T00:03:59.670Z,6.93
2017-11-09T00:06:27.245Z,6.92
2017-11-09T00:08:54.817Z,6.92
2017-11-09T00:11:22.774Z,6.94
2017-11-09T00:13:50.313Z,6.90
2017-11-09T00:16:17.861Z,6.91
2017-11-09T00:18:45.435Z,6.91
2017-11-09T00:21:13.012Z,6.92
2017-11-09T00:23:40.579Z,6.91
2017-11-09T00:26:08.143Z,6.90
2017-11-09T00:28:35.984Z,6.88
2017-11-09T00:31:03.513Z,6.88
2017-11-09T00:33:31.061Z,6.89
2017-11-09T00:35:58.661Z,6.88
2017-11-09T00:38:26.169Z,6.87
2017-11-09T00:40:53.837Z,6.87
2017-11-09T00:43:21.410Z,6.85
2017-11-09T00:45:48.959Z,6.85
2017-11-09T00:48:16.525Z,6.86
2017-11-09T00:50:44.080Z,6.85
2017-11-09T00:53:11.637Z,6.82
2017-11-09T00:55:39.175Z,6.84
2017-11-09T00:58:06.734Z,6.85
2017-11-09T01:00:34.265Z,6.83
2017-11-09T01:03:01.837Z,6.83
2017-11-09T01:05:29.399Z,6.82
2017-11-09T01:07:57.168Z,6.83
2017-11-09T01:10:24.758Z,6.83
2017-11-09T01:12:52.317Z,6.82
2017-11-09T01:15:20.250Z,6.84
2017-11-09T01:17:47.799Z,6.86
2017-11-09T01:20:15.341Z,6.88
2017-11-09T01:22:42.926Z,6.88
2017-11-09T01:25:10.464Z,6.88
2017-11-09T01:27:38.147Z,6.88
2017-11-09T01:30:05.748Z,6.86
2017-11-09T01:32:33.342Z,6.84
2017-11-09T01:35:00.884Z,6.81
2017-11-09T01:37:28.425Z,6.78
2017-11-09T01:39:55.989Z,6.79
2017-11-09T01:42:23.539Z,6.78
2017-11-09T01:44:51.111Z,6.77
2017-11-09T01:47:18.666Z,6.77
2017-11-09T01:49:46.233Z,6.76
2017-11-09T01:52:13.774Z,6.76
2017-11-09T01:54:41.701Z,6.76
2017-11-09T01:57:09.259Z,6.77
2017-11-09T01:59:36.802Z,6.76
2017-11-09T02:02:04.352Z,6.75
2017-11-09T02:04:32.043Z,6.75
2017-11-09T02:06:59.593Z,6.73
2017-11-09T02:09:27.140Z,6.70
2017-11-09T02:11:55.126Z,6.70
2017-11-09T02:14:22.684Z,6.71
2017-11-09T02:16:50.282Z,6.69
2017-11-09T02:19:17.873Z,6.71
2017-11-09T02:21:45.406Z,6.71
2017-11-09T02:24:13.135Z,6.68
2017-11-09T02:26:40.680Z,6.63
2017-11-09T02:29:08.616Z,6.61
2017-11-09T02:31:36.183Z,6.60
2017-11-09T02:34:03.726Z,6.57
2017-11-09T02:36:31.311Z,6.58
2017-11-09T02:38:58.898Z,6.58
2017-11-09T02:41:26.625Z,6.60
2017-11-09T02:43:54.180Z,6.62
2017-11-09T02:46:22.112Z,6.64
2017-11-09T02:48:49.702Z,6.66
2017-11-09T02:51:17.262Z,6.67
2017-11-09T02:53:44.854Z,6.67
2017-11-09T02:56:12.479Z,6.66
2017-11-09T02:58:40.054Z,6.66
2017-11-09T03:01:07.593Z,6.64
2017-11-09T03:06:09.288Z,6.60
2017-11-09T03:08:37.127Z,6.61
2017-11-09T03:11:04.668Z,6.61
2017-11-09T03:13:32.215Z,6.60
2017-11-09T03:15:59.888Z,6.61
2017-11-09T03:18:27.447Z,6.62
2017-11-09T03:20:55.027Z,6.61
2017-11-09T03:23:22.581Z,6.62
2017-11-09T03:25:50.521Z,6.62
2017-11-09T03:28:18.056Z,6.62
2017-11-09T03:30:45.695Z,6.62
2017-11-09T03:33:13.410Z,6.61
2017-11-09T03:35:40.960Z,6.65
2017-11-09T03:38:08.536Z,6.65
2017-11-09T03:40:36.116Z,6.66
2017-11-09T03:43:04.049Z,6.65
2017-11-09T03:45:31.669Z,6.64
2017-11-09T03:47:59.211Z,6.64
2017-11-09T03:50:26.777Z,6.64
2017-11-09T03:52:54.393Z,6.65
2017-11-09T03:55:21.966Z,6.65
2017-11-09T03:57:49.500Z,6.64
2017-11-09T04:00:17.404Z,6.64
2017-11-09T04:02:45.003Z,6.64
2017-11-09T04:05:12.587Z,6.64
2017-11-09T04:07:40.296Z,6.65
2017-11-09T04:10:08.003Z,6.65
2017-11-09T04:12:35.655Z,6.64
2017-11-09T04:15:03.404Z,6.65
2017-11-09T04:17:31.344Z,6.66
2017-11-09T04:19:58.908Z,6.67
2017-11-09T04:22:26.450Z,6.67
2017-11-09T04:24:54.038Z,6.67
2017-11-09T04:27:21.606Z,6.69
2017-11-09T04:29:49.339Z,6.70
2017-11-09T04:32:16.901Z,6.69
2017-11-09T04:34:44.482Z,6.69
2017-11-09T04:37:12.036Z,6.69
2017-11-09T04:39:39.580Z,6.70
2017-11-09T04:42:07.146Z,6.72
2017-11-09T04:44:34.716Z,6.72
2017-11-09T04:47:02.279Z,6.74
2017-11-09T04:49:29.820Z,6.75
2017-11-09T04:51:57.374Z,6.75
2017-11-09T04:54:24.909Z,6.75
2017-11-09T04:56:52.548Z,6.75
2017-11-09T04:59:20.090Z,6.76
2017-11-09T05:01:47.645Z,6.74
2017-11-09T05:04:15.213Z,6.74
2017-11-09T05:06:42.755Z,6.74
2017-11-09T05:09:10.501Z,6.74
2017-11-09T05:11:38.112Z,6.75
2017-11-09T05:14:05.931Z,6.75
2017-11-09T05:16:33.479Z,6.75
2017-11-09T05:19:01.034Z,6.74
2017-11-09T05:21:28.636Z,6.75
2017-11-09T05:23:56.180Z,6.75
2017-11-09T05:26:23.744Z,6.76
2017-11-09T05:28:51.280Z,6.75
2017-11-09T05:31:19.144Z,6.73
2017-11-09T05:33:46.700Z,6.75
2017-11-09T05:36:14.268Z,6.75
2017-11-09T05:38:41.825Z,6.75
2017-11-09T05:41:09.376Z,6.75
2017-11-09T05:43:36.953Z,6.74
2017-11-09T05:46:04.514Z,6.74
2017-11-09T05:48:32.092Z,6.74
2017-11-09T05:50:59.814Z,6.73
2017-11-09T05:53:27.342Z,6.71
2017-11-09T05:55:54.900Z,6.72
2017-11-09T05:58:22.457Z,6.72
2017-11-09T06:00:50.425Z,6.72
2017-11-09T06:03:18.087Z,6.70
2017-11-09T06:05:45.755Z,6.69
2017-11-09T06:08:13.293Z,6.71
2017-11-09T06:10:40.842Z,6.71
2017-11-09T06:13:08.439Z,6.72
2017-11-09T06:15:36.013Z,6.72
2017-11-09T06:18:03.605Z,6.73
2017-11-09T06:20:31.141Z,6.75
2017-11-09T06:22:58.802Z,6.76
2017-11-09T06:25:26.347Z,6.79
2017-11-09T06:27:53.911Z,6.79
2017-11-09T06:30:21.456Z,6.80
2017-11-09T06:32:49.068Z,6.80
2017-11-09T06:35:16.642Z,6.81
2017-11-09T06:37:44.191Z,6.82
2017-11-09T06:40:12.071Z,6.82
2017-11-09T06:42:39.620Z,6.82
2017-11-09T06:45:07.161Z,6.82
2017-11-09T06:47:34.757Z,6.82
2017-11-09T06:50:02.306Z,6.83
2017-11-09T06:52:29.867Z,6.84
2017-11-09T06:54:57.413Z,6.85
2017-11-09T06:57:25.008Z,6.85
2017-11-09T06:59:53.337Z,6.87
2017-11-09T07:02:20.908Z,6.89
2017-11-09T07:04:48.461Z,6.92
2017-11-09T07:07:16.023Z,6.92
2017-11-09T07:09:43.605Z,6.94
2017-11-09T07:12:11.175Z,6.96
2017-11-09T07:14:39.336Z,6.97
2017-11-09T07:17:07.086Z,6.97
2017-11-09T07:19:34.666Z,6.99
2017-11-09T07:22:02.256Z,6.99
2017-11-09T07:24:29.822Z,7.00
2017-11-09T07:26:57.670Z,6.99
2017-11-09T07:29:25.375Z,7.00
2017-11-09T07:31:53.051Z,7.00
2017-11-09T07:34:20.761Z,6.99
2017-11-09T07:36:48.301Z,7.00
2017-11-09T07:39:15.880Z,7.01
2017-11-09T07:41:43.425Z,7.02
2017-11-09T07:44:11.105Z,7.02
2017-11-09T07:46:38.645Z,7.01
2017-11-09T07:49:06.219Z,7.01
2017-11-09T07:51:33.785Z,7.02
2017-11-09T07:54:01.422Z,7.04
2017-11-09T07:56:28.996Z,7.05
2017-11-09T07:58:56.552Z,7.06
2017-11-09T08:01:24.410Z,7.08
2017-11-09T08:03:52.044Z,7.10
2017-11-09T08:06:19.616Z,7.12
2017-11-09T08:08:47.215Z,7.15
2017-11-09T08:11:14.772Z,7.17
2017-11-09T08:13:42.336Z,7.19
2017-11-09T08:16:09.876Z,7.19
2017-11-09T08:18:37.882Z,7.22
2017-11-09T08:21:05.416Z,7.25
2017-11-09T08:23:33.013Z,7.24
2017-11-09T08:26:02.125Z,7.26
2017-11-09T08:28:33.072Z,7.28
2017-11-09T08:31:02.072Z,7.32
2017-11-09T08:33:31.155Z,7.37
2017-11-09T08:35:58.732Z,7.40
2017-11-09T08:38:26.296Z,7.41
2017-11-09T08:40:53.906Z,7.40
2017-11-09T08:43:21.486Z,7.42
2017-11-09T08:45:49.066Z,7.46
2017-11-09T08:48:16.612Z,7.52
2017-11-09T08:50:44.181Z,7.53
2017-11-09T08:53:11.766Z,7.54
2017-11-09T08:55:39.443Z,7.57
2017-11-09T08:58:07.039Z,7.58
2017-11-09T09:00:34.618Z,7.63
2017-11-09T09:03:02.179Z,7.68
2017-11-09T09:05:29.774Z,7.68
2017-11-09T09:07:57.340Z,7.69
2017-11-09T09:10:24.921Z,7.77
2017-11-09T09:12:52.498Z,7.81
2017-11-09T09:15:20.113Z,7.85
2017-11-09T09:17:47.662Z,7.89
2017-11-09T09:20:16.047Z,7.90
2017-11-09T09:22:43.583Z,7.92
2017-11-09T09:25:11.666Z,7.98
2017-11-09T09:27:39.237Z,8.04
2017-11-09T09:30:09.806Z,8.08
2017-11-09T09:32:47.207Z,8.08
2017-11-09T09:38:38.777Z,8.14
2017-11-09T09:41:06.383Z,8.18
2017-11-09T09:43:33.933Z,8.22
2017-11-09T09:46:01.913Z,8.19
2017-11-09T09:48:29.461Z,8.23
2017-11-09T09:50:57.002Z,8.27
2017-11-09T09:53:24.668Z,8.30
2017-11-09T09:55:52.247Z,8.33
2017-11-09T09:58:19.809Z,8.37
2017-11-09T10:00:47.349Z,8.43
2017-11-09T10:03:14.935Z,8.48
2017-11-09T10:05:42.488Z,8.53
2017-11-09T10:08:10.042Z,8.59
2017-11-09T10:10:37.622Z,8.63
2017-11-09T10:13:05.167Z,8.62
2017-11-09T10:15:32.870Z,8.66
2017-11-09T10:18:00.416Z,8.58
2017-11-09T10:20:28.101Z,8.54
2017-11-09T10:22:55.683Z,8.58
2017-11-09T10:25:23.242Z,8.63
2017-11-09T10:27:50.847Z,8.68
2017-11-09T10:30:18.412Z,8.76
2017-11-09T10:32:46.001Z,8.88
2017-11-09T10:35:13.561Z,8.99
2017-11-09T10:37:41.208Z,9.02
2017-11-09T10:40:08.774Z,9.12
2017-11-09T10:42:36.338Z,9.24
2017-11-09T10:45:03.915Z,9.29
2017-11-09T10:47:31.463Z,9.35
2017-11-09T10:49:59.041Z,9.40
2017-11-09T10:52:26.594Z,9.46
2017-11-09T10:54:55.401Z,9.41
2017-11-09T10:57:23.003Z,9.40
2017-11-09T10:59:50.568Z,9.40
2017-11-09T11:02:18.130Z,9.35
2017-11-09T11:04:46.030Z,9.38
2017-11-09T11:07:13.613Z,9.44
2017-11-09T11:09:41.163Z,9.44
2017-11-09T11:12:08.739Z,9.43
2017-11-09T11:14:36.303Z,9.38
2017-11-09T11:17:03.873Z,9.39
2017-11-09T11:19:31.534Z,9.35
2017-11-09T11:21:59.124Z,9.30
2017-11-09T11:24:26.697Z,9.31
2017-11-09T11:26:54.250Z,9.34
2017-11-09T11:29:21.858Z,9.30
2017-11-09T11:31:49.419Z,9.25
2017-11-09T11:34:16.978Z,9.23
2017-11-09T11:36:44.551Z,9.24
2017-11-09T11:39:12.179Z,9.20
2017-11-09T11:41:39.733Z,9.15
2017-11-09T11:44:07.320Z,9.12
2017-11-09T11:46:34.903Z,9.07
2017-11-09T11:49:02.477Z,9.02
2017-11-09T11:51:30.089Z,9.01
2017-11-09T11:53:57.657Z,8.99
2017-11-09T11:56:25.192Z,8.98
2017-11-09T11:58:52.996Z,8.97
2017-11-09T12:01:20.552Z,8.96
2017-11-09T12:03:48.112Z,8.93
2017-11-09T12:06:15.687Z,8.91
2017-11-09T12:08:43.273Z,8.88
2017-11-09T12:11:10.867Z,8.87
2017-11-09T12:13:38.583Z,8.82
2017-11-09T12:16:06.272Z,8.81
2017-11-09T12:18:33.825Z,8.82
2017-11-09T12:21:01.409Z,8.79
2017-11-09T12:23:28.965Z,8.78
2017-11-09T12:25:56.551Z,8.79
2017-11-09T12:28:24.236Z,8.74
2017-11-09T12:30:51.798Z,8.74
2017-11-09T12:33:19.424Z,8.74
2017-11-09T12:35:46.981Z,8.74
2017-11-09T12:38:14.563Z,8.68
2017-11-09T12:40:42.378Z,8.66
2017-11-09T12:43:09.938Z,8.66
2017-11-09T12:45:37.514Z,8.64
2017-11-09T12:48:05.097Z,8.63
2017-11-09T12:50:32.670Z,8.62
2017-11-09T12:53:00.219Z,8.59
2017-11-09T12:55:28.095Z,8.58
2017-11-09T12:57:55.647Z,8.57
2017-11-09T13:00:23.231Z,8.58
2017-11-09T13:02:50.804Z,8.57
2017-11-09T13:05:18.369Z,8.54
2017-11-09T13:07:46.519Z,8.54
2017-11-09T13:10:14.082Z,8.55
2017-11-09T13:12:41.726Z,8.56
2017-11-09T13:15:09.270Z,8.56
2017-11-09T13:17:36.881Z,8.55
2017-11-09T13:20:04.488Z,8.57
2017-11-09T13:22:32.069Z,8.57
2017-11-09T13:24:59.655Z,8.57
2017-11-09T13:27:27.253Z,8.57
2017-11-09T13:29:54.858Z,8.58
2017-11-09T13:32:22.419Z,8.57
2017-11-09T13:34:49.977Z,8.57
2017-11-09T13:37:17.671Z,8.55
2017-11-09T13:39:45.234Z,8.58
2017-11-09T13:42:12.872Z,8.58
2017-11-09T13:44:40.423Z,8.57
2017-11-09T13:47:08.022Z,8.58
2017-11-09T13:49:35.605Z,8.58
2017-11-09T13:52:03.157Z,8.59
2017-11-09T13:54:30.748Z,8.55
2017-11-09T13:56:58.312Z,8.55
2017-11-09T13:59:25.874Z,8.55
2017-11-09T14:01:53.405Z,8.56
2017-11-09T14:04:20.973Z,8.57
2017-11-09T14:06:48.507Z,8.55
2017-11-09T14:09:16.056Z,8.57
2017-11-09T14:11:43.646Z,8.57
2017-11-09T14:14:11.313Z,8.54
2017-11-09T14:16:38.882Z,8.51
2017-11-09T14:19:06.448Z,8.50
2017-11-09T14:21:34.102Z,8.46
2017-11-09T14:24:01.688Z,8.43
2017-11-09T14:26:29.329Z,8.42
2017-11-09T14:28:56.891Z,8.41
2017-11-09T14:31:24.462Z,8.41
2017-11-09T14:33:52.154Z,8.43
2017-11-09T14:36:19.746Z,8.44
2017-11-09T14:38:51.130Z,8.44
2017-11-09T14:41:18.718Z,8.46
2017-11-09T14:43:46.294Z,8.46
2017-11-09T14:46:14.971Z,8.46
2017-11-09T14:48:42.586Z,8.44
2017-11-09T14:51:10.475Z,8.46
2017-11-09T14:53:38.111Z,8.46
2017-11-09T14:56:05.687Z,8.47
2017-11-09T14:58:33.285Z,8.47
2017-11-09T15:01:00.888Z,8.44
2017-11-09T15:03:28.473Z,8.40
2017-11-09T15:05:56.115Z,8.39
2017-11-09T15:08:23.721Z,8.38
2017-11-09T15:10:51.287Z,8.37
2017-11-09T15:13:18.845Z,8.35
2017-11-09T15:15:51.954Z,8.35
2017-11-09T15:18:19.526Z,8.35
2017-11-09T15:20:47.144Z,8.33
2017-11-09T15:23:14.754Z,8.32
2017-11-09T15:25:42.452Z,8.32
2017-11-09T15:28:10.025Z,8.31
2017-11-09T15:30:37.578Z,8.30
2017-11-09T15:33:07.055Z,8.29
2017-11-09T15:35:37.372Z,8.28
2017-11-09T15:38:04.954Z,8.25
2017-11-09T15:40:32.543Z,8.24
2017-11-09T15:43:00.142Z,8.23
2017-11-09T15:45:27.716Z,8.23
2017-11-09T15:47:55.273Z,8.20
2017-11-09T15:50:22.873Z,8.19
2017-11-09T15:52:50.448Z,8.17
2017-11-09T15:55:18.052Z,8.16
2017-11-09T15:57:45.626Z,8.17
2017-11-09T16:00:13.235Z,8.16
2017-11-09T16:02:40.799Z,8.14
2017-11-09T16:05:08.352Z,8.13
2017-11-09T16:07:38.935Z,8.10
2017-11-09T16:10:06.515Z,8.10
2017-11-09T16:12:34.133Z,8.08
2017-11-09T16:15:01.875Z,8.08
2017-11-09T16:17:29.423Z,8.07
2017-11-09T16:19:56.998Z,8.06
2017-11-09T16:22:24.563Z,8.05
2017-11-09T16:24:53.010Z,8.02
2017-11-09T16:27:23.532Z,8.01
2017-11-09T16:29:51.170Z,8.00
2017-11-09T16:32:18.742Z,8.00
2017-11-09T16:34:46.327Z,7.99
2017-11-09T16:37:13.937Z,7.99
2017-11-09T16:39:41.513Z,8.00
2017-11-09T16:42:09.123Z,8.01
2017-11-09T16:44:37.250Z,8.01
2017-11-09T16:47:04.918Z,8.01
2017-11-09T16:49:32.490Z,8.01
2017-11-09T16:52:00.374Z,7.99
2017-11-09T16:54:27.929Z,7.98
2017-11-09T16:56:55.500Z,7.97
2017-11-09T16:59:23.131Z,7.97
2017-11-09T17:01:50.712Z,7.96
2017-11-09T17:04:18.300Z,7.95
2017-11-09T17:06:46.125Z,7.95
2017-11-09T17:09:13.718Z,7.95
2017-11-09T17:11:41.294Z,7.94
2017-11-09T17:14:08.872Z,7.94
2017-11-09T17:16:36.437Z,7.93
2017-11-09T17:19:04.001Z,7.93
2017-11-09T17:21:31.634Z,7.92
2017-11-09T17:23:59.325Z,7.91
2017-11-09T17:26:26.982Z,7.91
2017-11-09T17:28:54.576Z,7.90
2017-11-09T17:31:22.164Z,7.90
2017-11-09T17:33:49.738Z,7.91
2017-11-09T17:36:17.352Z,7.91
2017-11-09T17:38:44.956Z,7.92
2017-11-09T17:41:12.512Z,7.91
2017-11-09T17:43:40.228Z,7.91
2017-11-09T17:46:08.169Z,7.90
2017-11-09T17:48:35.839Z,7.89
2017-11-09T17:51:03.662Z,7.86
2017-11-09T17:53:32.025Z,7.85
2017-11-09T17:56:08.073Z,7.86
2017-11-09T17:58:38.616Z,7.86
2017-11-09T18:01:06.268Z,7.85
2017-11-09T18:03:35.625Z,7.87
2017-11-09T18:06:03.214Z,7.86
2017-11-09T18:08:30.881Z,7.86
2017-11-09T18:10:58.478Z,7.86
2017-11-09T18:13:26.112Z,7.87
2017-11-09T18:15:53.710Z,7.86
2017-11-09T18:18:21.310Z,7.85
2017-11-09T18:20:48.881Z,7.85
2017-11-09T18:23:16.499Z,7.85
2017-11-09T18:25:44.147Z,7.84
2017-11-09T18:28:11.727Z,7.81
2017-11-09T18:30:39.632Z,7.82
2017-11-09T18:33:07.200Z,7.82
2017-11-09T18:35:35.008Z,7.82
2017-11-09T18:38:02.603Z,7.83
2017-11-09T18:40:30.286Z,7.83
2017-11-09T18:42:57.925Z,7.82
2017-11-09T18:45:25.553Z,7.82
2017-11-09T18:47:53.176Z,7.81
2017-11-09T18:50:20.775Z,7.80
2017-11-09T18:52:48.363Z,7.79
2017-11-09T18:55:16.145Z,7.78
2017-11-09T18:57:43.780Z,7.78
2017-11-09T19:00:11.383Z,7.77
2017-11-09T19:02:38.989Z,7.78
2017-11-09T19:05:06.781Z,7.77
2017-11-09T19:07:34.435Z,7.75
2017-11-09T19:10:02.119Z,7.77
2017-11-09T19:12:29.762Z,7.77
2017-11-09T19:14:57.424Z,7.76
2017-11-09T19:17:25.146Z,7.75
2017-11-09T19:19:52.796Z,7.74
2017-11-09T19:22:20.421Z,7.76
2017-11-09T19:24:48.052Z,7.75
2017-11-09T19:27:15.693Z,7.75
2017-11-09T19:29:43.283Z,7.74
2017-11-09T19:32:10.961Z,7.74
2017-11-09T19:34:38.907Z,7.72
2017-11-09T19:37:06.731Z,7.71
2017-11-09T19:39:34.424Z,7.70
2017-11-09T19:42:02.106Z,7.70
2017-11-09T19:44:29.821Z,7.70
2017-11-09T19:46:57.531Z,7.69
2017-11-09T19:49:25.390Z,7.69
2017-11-09T19:51:53.221Z,7.67
2017-11-09T19:54:21.150Z,7.67
2017-11-09T19:56:48.896Z,7.66
2017-11-09T19:59:16.750Z,7.67
2017-11-09T20:01:44.727Z,7.67
2017-11-09T20:04:12.614Z,7.68
2017-11-09T20:06:40.438Z,7.67
2017-11-09T20:09:08.216Z,7.66
2017-11-09T20:11:36.531Z,7.65
2017-11-09T20:14:04.261Z,7.65
2017-11-09T20:16:32.951Z,7.63
2017-11-09T20:19:00.950Z,7.63
2017-11-09T20:21:28.759Z,7.61
2017-11-09T20:23:56.529Z,7.62
2017-11-09T20:26:24.295Z,7.61
2017-11-09T20:28:52.286Z,7.60
2017-11-09T20:31:20.297Z,7.59
2017-11-09T20:33:48.237Z,7.58
2017-11-09T20:36:15.960Z,7.57
2017-11-09T20:38:43.870Z,7.56
2017-11-09T20:41:11.727Z,7.55
2017-11-09T20:43:39.792Z,7.56
2017-11-09T20:46:07.539Z,7.57
2017-11-09T20:48:35.437Z,7.56
2017-11-09T20:51:03.251Z,7.55
2017-11-09T20:53:30.924Z,7.54
2017-11-09T20:55:58.787Z,7.55
2017-11-09T20:58:26.647Z,7.55
2017-11-09T21:00:54.297Z,7.55
2017-11-09T21:03:22.088Z,7.56
2017-11-09T21:05:49.897Z,7.55
2017-11-09T21:08:17.491Z,7.55
2017-11-09T21:10:45.133Z,7.57
2017-11-09T21:13:12.730Z,7.58
2017-11-09T21:15:40.315Z,7.57
2017-11-09T21:18:07.957Z,7.56
2017-11-09T21:20:35.557Z,7.56
2017-11-09T21:23:03.167Z,7.56
2017-11-09T21:25:30.739Z,7.57
2017-11-09T21:27:58.353Z,7.57
2017-11-09T21:30:26.059Z,7.56
2017-11-09T21:32:53.683Z,7.55
2017-11-09T21:35:21.269Z,7.54
2017-11-09T21:37:48.875Z,7.53
2017-11-09T21:40:16.473Z,7.53
2017-11-09T21:42:44.099Z,7.53
2017-11-09T21:45:11.656Z,7.54
2017-11-09T21:47:39.306Z,7.53
2017-11-09T21:50:06.924Z,7.52
2017-11-09T21:52:34.512Z,7.52
2017-11-09T21:55:02.242Z,7.53
2017-11-09T21:57:29.800Z,7.52
2017-11-09T21:59:57.379Z,7.52
2017-11-09T22:02:24.934Z,7.52
2017-11-09T22:04:52.503Z,7.53
2017-11-09T22:07:20.107Z,7.52
2017-11-09T22:09:47.666Z,7.51
2017-11-09T22:12:15.232Z,7.50
2017-11-09T22:14:42.808Z,7.48
2017-11-09T22:17:10.437Z,7.48
2017-11-09T22:19:38.013Z,7.48
2017-11-09T22:22:05.583Z,7.47
2017-11-09T22:24:33.164Z,7.47
2017-11-09T22:27:00.843Z,7.47
2017-11-09T22:29:28.428Z,7.48
2017-11-09T22:31:56.138Z,7.47
2017-11-09T22:34:23.725Z,7.47
2017-11-09T22:36:51.357Z,7.48
2017-11-09T22:39:18.919Z,7.48
2017-11-09T22:41:46.511Z,7.47
2017-11-09T22:44:14.056Z,7.45
2017-11-09T22:46:41.655Z,7.45
2017-11-09T22:49:09.219Z,7.46
2017-11-09T22:51:36.803Z,7.47
2017-11-09T22:54:04.382Z,7.47
2017-11-09T22:56:31.927Z,7.47
2017-11-09T22:58:59.495Z,7.46
2017-11-09T23:01:27.068Z,7.46
2017-11-09T23:03:54.649Z,7.45
2017-11-09T23:06:22.261Z,7.44
2017-11-09T23:08:49.836Z,7.42
2017-11-09T23:11:17.374Z,7.43
2017-11-09T23:13:45.301Z,7.43
2017-11-09T23:16:12.896Z,7.42
2017-11-09T23:18:40.497Z,7.43
2017-11-09T23:21:08.122Z,7.43
2017-11-09T23:23:35.682Z,7.42
2017-11-09T23:26:03.236Z,7.43
2017-11-09T23:28:30.953Z,7.41
2017-11-09T23:30:58.481Z,7.40
2017-11-09T23:33:26.051Z,7.38
2017-11-09T23:35:53.622Z,7.40
2017-11-09T23:38:21.697Z,7.41
2017-11-09T23:40:49.247Z,7.42
2017-11-09T23:43:16.964Z,7.42
2017-11-09T23:45:44.533Z,7.42
2017-11-09T23:48:12.147Z,7.41
2017-11-09T23:50:39.727Z,7.42
2017-11-09T23:53:07.265Z,7.41
2017-11-09T23:55:35.166Z,7.42
2017-11-09T23:58:02.729Z,7.42
